Time;durP1;ratioP1;P1;durP2;ratioP2;P2;SDS_P1;SDS_P2;PMS_P1;PMS_P2;Temp;Humidity;BMP_temperature;BMP_pressure;BME280_temperature;BME280_humidity;BME280_pressure;Samples;Min_cycle;Max_cycle;Signal;HPM_P1;HPM_P2
2023/06/23 00:02:00;;;;;;;5.53;4.97;;;21.20;99.90;;;;;;4993389;28;20255;-71
2023/06/23 00:04:26;;;;;;;6.10;5.50;;;21.00;99.90;;;;;;4997617;28;20228;-71
2023/06/23 00:06:52;;;;;;;5.60;4.87;;;21.00;99.90;;;;;;4989977;28;20244;-71
2023/06/23 00:09:18;;;;;;;5.70;5.00;;;21.10;99.90;;;;;;4991450;28;20225;-71
2023/06/23 00:11:44;;;;;;;5.07;4.57;;;21.10;99.90;;;;;;5000813;28;20244;-72
2023/06/23 00:14:11;;;;;;;6.43;5.80;;;21.10;99.90;;;;;;5005073;28;20237;-71
2023/06/23 00:16:36;;;;;;;5.67;5.07;;;20.90;99.90;;;;;;4984537;28;20468;-71
2023/06/23 00:19:03;;;;;;;5.60;4.67;;;20.90;99.90;;;;;;4995169;28;20471;-71
2023/06/23 00:21:29;;;;;;;6.30;5.70;;;20.90;99.90;;;;;;4996931;28;20692;-72
2023/06/23 00:23:55;;;;;;;5.20;4.67;;;20.70;99.90;;;;;;5002973;28;20469;-70
2023/06/23 00:26:23;;;;;;;7.03;5.67;;;20.90;99.90;;;;;;5000118;28;20479;-71
2023/06/23 00:28:49;;;;;;;6.70;5.70;;;20.80;99.90;;;;;;5005244;28;20502;-71
2023/06/23 00:31:15;;;;;;;5.43;4.87;;;20.70;99.90;;;;;;5000281;28;20910;-71
2023/06/23 00:33:40;;;;;;;6.60;5.40;;;20.70;99.90;;;;;;4985202;28;20213;-71
2023/06/23 00:36:07;;;;;;;4.97;4.50;;;20.40;99.90;;;;;;4999951;28;20221;-71
2023/06/23 00:38:34;;;;;;;6.77;4.73;;;20.60;99.90;;;;;;4999708;28;20591;-71
2023/06/23 00:41:01;;;;;;;5.60;4.70;;;20.60;99.90;;;;;;4972623;28;20260;-71
2023/06/23 00:43:26;;;;;;;5.20;4.30;;;20.40;99.90;;;;;;5008499;28;20536;-71
2023/06/23 00:45:52;;;;;;;5.83;5.33;;;20.40;99.90;;;;;;4986816;28;20560;-71
2023/06/23 00:48:18;;;;;;;5.30;4.80;;;20.40;99.90;;;;;;4999575;28;20214;-71
2023/06/23 00:50:44;;;;;;;5.90;4.87;;;20.40;99.90;;;;;;4999818;28;20257;-71
2023/06/23 00:53:10;;;;;;;5.67;4.43;;;20.40;99.90;;;;;;4996151;28;20210;-70
2023/06/23 00:55:39;;;;;;;4.77;4.30;;;20.40;99.90;;;;;;5002484;28;20863;-73
2023/06/23 00:58:08;;;;;;;6.90;4.97;;;20.20;99.90;;;;;;4991433;28;20217;-70
2023/06/23 01:00:34;;;;;;;6.10;5.40;;;20.00;99.90;;;;;;4985017;28;20453;-71
2023/06/23 01:03:00;;;;;;;10.90;5.23;;;20.20;99.90;;;;;;5004346;28;20467;-71
2023/06/23 01:05:31;;;;;;;7.47;5.63;;;20.20;99.90;;;;;;4984421;28;20225;-71
2023/06/23 01:08:05;;;;;;;6.23;4.57;;;20.10;99.90;;;;;;4994189;28;20213;-71
2023/06/23 01:11:08;;;;;;;6.60;5.40;;;20.10;99.90;;;;;;4989159;28;20482;-71
2023/06/23 01:13:40;;;;;;;6.13;5.53;;;20.10;99.90;;;;;;4996857;28;20506;-71
2023/06/23 01:16:29;;;;;;;6.13;5.10;;;20.10;99.90;;;;;;4995784;28;20860;-71
2023/06/23 01:19:11;;;;;;;7.20;5.93;;;20.10;99.90;;;;;;4997730;28;20464;-71
2023/06/23 01:22:02;;;;;;;7.20;5.93;;;20.10;99.90;;;;;;4998029;28;20464;-71
2023/06/23 01:24:36;;;;;;;6.30;5.70;;;20.00;99.90;;;;;;4992402;28;20453;-71
2023/06/23 01:27:24;;;;;;;4.93;4.43;;;19.90;99.90;;;;;;4981739;28;20548;-70
2023/06/23 01:29:52;;;;;;;7.03;5.47;;;19.90;99.90;;;;;;4997672;28;20448;-71
2023/06/23 01:32:29;;;;;;;5.77;5.10;;;19.80;99.90;;;;;;4999522;28;20994;-71
2023/06/23 01:35:03;;;;;;;6.30;5.57;;;19.80;99.90;;;;;;4999495;28;20460;-71
2023/06/23 01:37:34;;;;;;;6.70;5.30;;;19.80;99.90;;;;;;5005978;28;20850;-70
2023/06/23 01:40:09;;;;;;;6.60;5.30;;;19.60;99.90;;;;;;5001800;28;20461;-70
2023/06/23 01:42:41;;;;;;;5.90;5.20;;;19.50;99.90;;;;;;5002640;28;20489;-71
2023/06/23 01:45:09;;;;;;;6.10;5.43;;;19.50;99.90;;;;;;4980765;28;20975;-71
2023/06/23 01:47:38;;;;;;;7.57;5.40;;;19.60;99.90;;;;;;5009615;28;20461;-70
2023/06/23 01:50:08;;;;;;;5.60;5.10;;;19.70;99.90;;;;;;4989205;28;20530;-71
2023/06/23 01:52:37;;;;;;;5.60;5.03;;;19.60;99.90;;;;;;5003342;28;20982;-71
2023/06/23 01:55:07;;;;;;;5.50;5.00;;;19.80;99.90;;;;;;5005206;28;20471;-70
2023/06/23 01:57:35;;;;;;;5.73;5.13;;;19.60;99.90;;;;;;5006927;28;21207;-70
2023/06/23 02:00:05;;;;;;;6.10;5.50;;;19.60;99.90;;;;;;5006267;28;20488;-71
2023/06/23 02:02:39;;;;;;;6.00;5.40;;;19.70;99.90;;;;;;5002706;28;20464;-71
2023/06/23 02:05:06;;;;;;;7.50;5.80;;;19.60;99.90;;;;;;4982703;28;20460;-70
2023/06/23 02:07:34;;;;;;;6.73;6.13;;;19.50;99.90;;;;;;4993204;28;20452;-71
2023/06/23 02:10:02;;;;;;;12.47;6.30;;;19.60;99.90;;;;;;5004288;28;20538;-72
2023/06/23 02:12:29;;;;;;;6.93;5.93;;;19.60;99.90;;;;;;5002066;28;20548;-71
2023/06/23 02:14:55;;;;;;;6.70;6.00;;;19.70;99.90;;;;;;5002953;28;20457;-71
2023/06/23 02:17:22;;;;;;;6.60;6.00;;;19.70;99.90;;;;;;5004319;28;20865;-71
2023/06/23 02:19:49;;;;;;;6.50;5.90;;;19.60;99.90;;;;;;5009869;28;20214;-72
2023/06/23 02:22:20;;;;;;;7.10;6.40;;;19.40;99.90;;;;;;5011342;28;20464;-71
2023/06/23 02:24:47;;;;;;;8.50;6.60;;;19.50;99.90;;;;;;4997353;28;20460;-70
2023/06/23 02:27:13;;;;;;;6.50;5.87;;;19.50;99.90;;;;;;4996563;28;20461;-70
2023/06/23 02:29:40;;;;;;;8.23;7.30;;;19.60;99.90;;;;;;4985614;28;20452;-72
2023/06/23 02:32:08;;;;;;;7.00;6.40;;;19.50;99.90;;;;;;5000384;28;20534;-71
2023/06/23 02:34:37;;;;;;;6.77;6.17;;;19.40;99.90;;;;;;4987352;28;20993;-70
2023/06/23 02:37:08;;;;;;;8.97;6.73;;;19.60;99.90;;;;;;5003730;28;20472;-71
2023/06/23 02:39:40;;;;;;;7.80;7.10;;;19.80;99.90;;;;;;4979457;28;20221;-71
2023/06/23 02:42:09;;;;;;;10.80;7.37;;;19.70;99.90;;;;;;4998732;28;20478;-70
2023/06/23 02:44:39;;;;;;;9.07;8.00;;;19.60;99.90;;;;;;4992462;28;20460;-70
2023/06/23 02:47:10;;;;;;;8.53;7.70;;;19.50;99.90;;;;;;4984741;28;20472;-70
2023/06/23 02:49:38;;;;;;;10.73;7.93;;;19.40;99.90;;;;;;5002818;28;20546;-70
2023/06/23 02:52:05;;;;;;;10.10;9.03;;;19.50;99.90;;;;;;4994332;28;20486;-70
2023/06/23 02:54:37;;;;;;;9.43;8.17;;;19.40;99.90;;;;;;5017902;28;20505;-71
2023/06/23 02:57:05;;;;;;;9.70;8.23;;;19.50;99.90;;;;;;4985488;28;20468;-70
2023/06/23 02:59:33;;;;;;;9.90;7.57;;;19.50;99.90;;;;;;4987616;28;20504;-70
2023/06/23 03:02:00;;;;;;;9.50;7.83;;;19.50;99.90;;;;;;4992515;28;21091;-71
2023/06/23 03:04:28;;;;;;;10.37;8.33;;;19.40;99.90;;;;;;5006517;28;20467;-71
2023/06/23 03:06:53;;;;;;;10.77;9.50;;;19.40;99.90;;;;;;5005125;28;20582;-71
2023/06/23 03:09:19;;;;;;;9.77;8.57;;;19.30;99.90;;;;;;4998605;28;20627;-71
2023/06/23 03:11:45;;;;;;;14.17;9.40;;;19.40;99.90;;;;;;5001861;28;20226;-71
2023/06/23 03:14:11;;;;;;;11.33;9.30;;;19.40;99.90;;;;;;4987508;28;20573;-71
2023/06/23 03:16:52;;;;;;;9.20;8.27;;;19.50;99.90;;;;;;4981746;28;20232;-70
2023/06/23 03:19:33;;;;;;;11.13;8.60;;;19.70;99.90;;;;;;5006393;28;20276;-71
2023/06/23 03:22:12;;;;;;;12.37;8.77;;;19.70;99.90;;;;;;4992358;28;20457;-70
2023/06/23 03:24:39;;;;;;;9.30;8.17;;;19.80;99.90;;;;;;5015115;28;21011;-70
2023/06/23 03:27:10;;;;;;;10.00;9.00;;;19.80;99.90;;;;;;4985825;28;20544;-70
2023/06/23 03:29:52;;;;;;;12.50;8.90;;;19.80;99.90;;;;;;5002411;28;20489;-70
2023/06/23 03:32:29;;;;;;;11.00;8.63;;;19.80;99.90;;;;;;5001982;28;20469;-70
2023/06/23 03:35:00;;;;;;;9.80;8.13;;;19.80;99.90;;;;;;4995562;28;20703;-71
2023/06/23 03:37:27;;;;;;;10.83;9.23;;;19.90;99.90;;;;;;4982977;28;20460;-70
2023/06/23 03:40:09;;;;;;;9.73;8.73;;;19.60;99.90;;;;;;4989035;28;20931;-70
2023/06/23 03:42:44;;;;;;;11.00;9.50;;;19.70;99.90;;;;;;5002775;28;20452;-71
2023/06/23 03:45:13;;;;;;;12.80;10.30;;;19.50;99.90;;;;;;4994712;28;20461;-71
2023/06/23 03:47:42;;;;;;;11.13;9.07;;;19.60;99.90;;;;;;5015767;28;20563;-71
2023/06/23 03:50:15;;;;;;;12.40;9.43;;;19.60;99.90;;;;;;5004727;28;20479;-70
2023/06/23 03:52:42;;;;;;;11.57;9.23;;;19.70;99.90;;;;;;4993685;28;20461;-71
2023/06/23 03:55:11;;;;;;;9.70;8.20;;;19.70;99.90;;;;;;4981400;28;20468;-70
2023/06/23 03:57:39;;;;;;;9.53;8.37;;;19.70;99.90;;;;;;4987176;28;20472;-70
2023/06/23 04:00:06;;;;;;;9.10;7.80;;;19.80;99.90;;;;;;4977394;28;20462;-71
2023/06/23 04:02:41;;;;;;;10.33;8.00;;;19.90;99.90;;;;;;5004257;28;20579;-69
2023/06/23 04:05:12;;;;;;;9.67;7.67;;;19.80;99.90;;;;;;4979790;28;20469;-71
2023/06/23 04:07:40;;;;;;;9.80;8.80;;;19.70;99.90;;;;;;4986054;28;20871;-71
2023/06/23 04:10:08;;;;;;;9.67;8.60;;;19.50;99.90;;;;;;4997822;28;20515;-69
2023/06/23 04:12:35;;;;;;;12.40;10.57;;;19.40;99.90;;;;;;4999604;28;20559;-70
2023/06/23 04:15:07;;;;;;;13.43;8.27;;;19.30;99.90;;;;;;5006093;28;20473;-71
2023/06/23 04:17:35;;;;;;;9.03;8.03;;;19.40;99.90;;;;;;5008980;28;20469;-71
2023/06/23 04:20:03;;;;;;;9.53;8.30;;;19.40;99.90;;;;;;4978266;28;20546;-71
2023/06/23 04:22:30;;;;;;;11.57;7.93;;;19.20;99.90;;;;;;4998121;28;20456;-72
2023/06/23 04:24:58;;;;;;;6.87;6.17;;;19.30;99.90;;;;;;5001683;28;20868;-71
2023/06/23 04:27:25;;;;;;;8.67;7.40;;;19.40;99.90;;;;;;5011421;28;20456;-74
2023/06/23 04:29:52;;;;;;;9.80;8.10;;;19.50;99.90;;;;;;4997879;28;20488;-71
2023/06/23 04:32:19;;;;;;;9.93;8.80;;;19.50;99.90;;;;;;5003307;28;20473;-71
2023/06/23 04:34:45;;;;;;;10.07;8.97;;;19.40;99.90;;;;;;5003585;28;20476;-72
2023/06/23 04:37:23;;;;;;;11.20;9.13;;;19.20;99.90;;;;;;5008473;28;20464;-71
2023/06/23 04:39:55;;;;;;;11.47;8.97;;;19.00;99.90;;;;;;5007450;28;20217;-71
2023/06/23 04:42:29;;;;;;;8.90;7.90;;;19.00;99.90;;;;;;4993325;28;20987;-70
2023/06/23 04:44:59;;;;;;;9.53;8.00;;;19.10;99.90;;;;;;5013514;28;20463;-70
2023/06/23 04:47:28;;;;;;;8.97;7.30;;;19.10;99.90;;;;;;5005715;28;21002;-70
2023/06/23 04:49:58;;;;;;;8.40;7.03;;;19.20;99.90;;;;;;5015372;28;20468;-71
2023/06/23 04:52:26;;;;;;;7.40;6.50;;;19.10;99.90;;;;;;4993802;28;20503;-71
2023/06/23 04:54:56;;;;;;;6.43;5.50;;;19.00;99.90;;;;;;4992975;28;20560;-70
2023/06/23 04:57:25;;;;;;;6.37;5.57;;;19.20;99.90;;;;;;4997775;28;20492;-72
2023/06/23 04:59:57;;;;;;;7.80;5.20;;;19.00;99.90;;;;;;5002978;28;20467;-70
2023/06/23 05:02:25;;;;;;;5.30;4.80;;;19.20;99.90;;;;;;5011715;28;20519;-71
2023/06/23 05:04:53;;;;;;;6.20;5.60;;;19.20;99.90;;;;;;4983965;28;20456;-72
2023/06/23 05:07:19;;;;;;;6.00;5.40;;;19.30;99.90;;;;;;4996750;28;20444;-70
2023/06/23 05:09:50;;;;;;;5.60;5.00;;;19.20;99.90;;;;;;4997985;28;20482;-70
2023/06/23 05:12:18;;;;;;;7.13;6.17;;;19.10;99.90;;;;;;4995918;28;20807;-70
2023/06/23 05:14:47;;;;;;;6.70;5.37;;;19.20;99.90;;;;;;5002056;28;20452;-72
2023/06/23 05:17:14;;;;;;;6.80;5.43;;;19.20;99.90;;;;;;4998252;28;20465;-70
2023/06/23 05:19:43;;;;;;;6.00;5.30;;;19.10;99.90;;;;;;4994162;28;20555;-70
2023/06/23 05:22:12;;;;;;;7.20;5.60;;;19.10;99.90;;;;;;4981006;28;20471;-71
2023/06/23 05:24:41;;;;;;;7.07;6.17;;;19.10;99.90;;;;;;5001149;28;20856;-71
2023/06/23 05:27:08;;;;;;;6.40;5.20;;;19.20;99.90;;;;;;5002960;28;20844;-70
2023/06/23 05:29:41;;;;;;;6.27;5.70;;;19.20;99.90;;;;;;5002700;28;21052;-71
2023/06/23 05:32:13;;;;;;;13.83;5.70;;;19.20;99.90;;;;;;4995545;28;20480;-71
2023/06/23 05:34:40;;;;;;;5.97;5.47;;;19.20;99.90;;;;;;4984409;28;20461;-71
2023/06/23 05:37:06;;;;;;;6.90;6.30;;;19.10;99.90;;;;;;4998175;28;20563;-71
2023/06/23 05:39:36;;;;;;;6.97;6.10;;;19.10;99.90;;;;;;5000684;28;20457;-72
2023/06/23 05:42:02;;;;;;;6.50;5.90;;;19.30;99.90;;;;;;4990467;28;20476;-71
2023/06/23 05:44:28;;;;;;;8.80;6.17;;;19.20;99.90;;;;;;4983290;28;20460;-71
2023/06/23 05:46:58;;;;;;;6.77;6.17;;;19.20;99.90;;;;;;4989133;28;20296;-71
2023/06/23 05:49:25;;;;;;;9.00;5.83;;;19.30;99.90;;;;;;4998114;28;20628;-71
2023/06/23 05:52:00;;;;;;;8.57;5.97;;;19.20;99.90;;;;;;4992665;28;21035;-71
2023/06/23 05:54:30;;;;;;;10.43;6.83;;;19.20;99.90;;;;;;4998493;28;20459;-72
2023/06/23 05:57:00;;;;;;;9.70;6.07;;;19.30;99.90;;;;;;4998419;28;20501;-71
2023/06/23 05:59:36;;;;;;;7.17;5.90;;;19.30;99.90;;;;;;4979935;28;20532;-70
2023/06/23 06:02:03;;;;;;;7.17;6.47;;;19.40;99.90;;;;;;4998068;28;21066;-71
2023/06/23 06:04:33;;;;;;;6.70;6.00;;;19.10;99.90;;;;;;5001399;28;20499;-71
2023/06/23 06:07:01;;;;;;;6.90;6.20;;;19.30;99.90;;;;;;4996879;28;20955;-71
2023/06/23 06:09:32;;;;;;;6.57;5.67;;;19.30;99.90;;;;;;4977277;28;20552;-71
2023/06/23 06:11:58;;;;;;;7.67;5.83;;;19.40;99.90;;;;;;4975908;28;20483;-71
2023/06/23 06:14:26;;;;;;;6.43;5.83;;;19.40;99.90;;;;;;5002381;28;20467;-72
2023/06/23 06:16:53;;;;;;;9.73;6.40;;;19.50;99.90;;;;;;5003923;28;20464;-70
2023/06/23 06:19:22;;;;;;;6.90;6.20;;;19.40;99.90;;;;;;5000527;28;20467;-71
2023/06/23 06:21:49;;;;;;;7.47;6.17;;;19.40;99.90;;;;;;4985801;28;20461;-71
2023/06/23 06:24:18;;;;;;;6.50;5.87;;;19.50;99.90;;;;;;5000500;28;20539;-71
2023/06/23 06:26:46;;;;;;;6.70;5.70;;;19.40;99.90;;;;;;4987354;28;20467;-70
2023/06/23 06:29:14;;;;;;;6.90;6.20;;;19.50;99.90;;;;;;5000730;28;20464;-71
2023/06/23 06:31:42;;;;;;;6.70;6.10;;;19.40;99.90;;;;;;4986186;28;20480;-71
2023/06/23 06:34:09;;;;;;;6.60;6.00;;;19.50;99.90;;;;;;5000975;28;20463;-71
2023/06/23 06:36:36;;;;;;;6.93;6.23;;;19.40;99.90;;;;;;4998351;28;20469;-71
2023/06/23 06:39:04;;;;;;;10.27;6.60;;;19.40;99.90;;;;;;5000683;28;20994;-71
2023/06/23 06:41:31;;;;;;;9.07;7.17;;;19.40;99.90;;;;;;5003894;28;20607;-71
2023/06/23 06:43:57;;;;;;;6.40;5.80;;;19.40;99.90;;;;;;4986980;28;20587;-71
2023/06/23 06:46:26;;;;;;;7.83;6.33;;;19.50;99.90;;;;;;4992706;28;20455;-71
2023/06/23 06:48:53;;;;;;;7.03;6.37;;;19.60;99.90;;;;;;4999307;28;20445;-71
2023/06/23 06:51:18;;;;;;;7.30;6.50;;;19.70;99.90;;;;;;4982781;28;20622;-71
2023/06/23 06:53:45;;;;;;;6.80;6.10;;;19.80;99.90;;;;;;5001769;28;20571;-71
2023/06/23 06:56:12;;;;;;;10.20;6.10;;;19.70;99.90;;;;;;4999472;28;20292;-71
2023/06/23 06:58:38;;;;;;;8.97;7.00;;;19.80;99.90;;;;;;5002214;28;20456;-72
2023/06/23 07:01:06;;;;;;;6.97;6.20;;;19.80;99.90;;;;;;4980195;28;20862;-72
2023/06/23 07:03:32;;;;;;;8.00;6.03;;;19.90;99.90;;;;;;5002086;28;20453;-71
2023/06/23 07:05:58;;;;;;;9.93;7.20;;;20.00;99.90;;;;;;5001670;28;20491;-72
2023/06/23 07:08:24;;;;;;;8.33;5.90;;;20.00;99.90;;;;;;5005514;28;20457;-71
2023/06/23 07:10:49;;;;;;;6.33;5.70;;;20.10;99.90;;;;;;5008367;28;20245;-71
2023/06/23 07:13:15;;;;;;;6.63;5.90;;;20.10;99.90;;;;;;4990927;28;20223;-71
2023/06/23 07:15:41;;;;;;;7.67;6.53;;;20.10;99.90;;;;;;4999867;28;20228;-71
2023/06/23 07:18:06;;;;;;;7.00;6.30;;;20.20;99.90;;;;;;4999584;28;20222;-71
2023/06/23 07:20:32;;;;;;;6.47;5.87;;;20.20;99.90;;;;;;5002755;28;20250;-71
2023/06/23 07:22:57;;;;;;;8.90;6.40;;;20.20;99.90;;;;;;4995948;28;20300;-71
2023/06/23 07:25:23;;;;;;;7.33;6.53;;;20.30;99.90;;;;;;5001715;28;20222;-72
2023/06/23 07:27:49;;;;;;;9.63;6.53;;;20.30;99.90;;;;;;5001352;28;20254;-71
2023/06/23 07:30:15;;;;;;;6.53;5.87;;;20.30;99.90;;;;;;4996817;28;20226;-71
2023/06/23 07:32:44;;;;;;;7.30;6.60;;;20.30;99.90;;;;;;4985407;28;20598;-72
2023/06/23 07:35:10;;;;;;;8.93;6.50;;;20.40;99.90;;;;;;4998275;28;20465;-71
2023/06/23 07:41:22;;;;;;;9.43;6.90;;;20.30;99.90;;;;;;4994361;28;20228;-71
2023/06/23 07:43:48;;;;;;;6.83;6.13;;;20.40;99.90;;;;;;5005163;28;20912;-71
2023/06/23 07:46:14;;;;;;;6.90;6.20;;;20.40;99.90;;;;;;4975542;28;20230;-71
2023/06/23 07:48:39;;;;;;;7.23;6.27;;;20.60;99.90;;;;;;4998745;28;20214;-72
2023/06/23 07:51:05;;;;;;;8.43;6.07;;;20.50;99.90;;;;;;4994895;28;20288;-71
2023/06/23 07:53:31;;;;;;;6.70;5.63;;;20.60;99.90;;;;;;4999379;28;20699;-70
2023/06/23 07:55:56;;;;;;;8.17;6.10;;;20.60;99.90;;;;;;4981965;28;20317;-71
2023/06/23 07:58:22;;;;;;;7.10;6.40;;;20.70;99.90;;;;;;4998871;28;20411;-70
2023/06/23 08:00:47;;;;;;;6.60;5.90;;;20.80;99.90;;;;;;4999099;28;20220;-71
2023/06/23 08:03:13;;;;;;;5.83;5.33;;;20.90;99.90;;;;;;4995965;28;20225;-71
2023/06/23 08:05:39;;;;;;;7.00;6.30;;;20.90;99.90;;;;;;4998327;28;20225;-71
2023/06/23 08:08:05;;;;;;;6.03;5.43;;;21.00;99.90;;;;;;4965948;28;20205;-72
2023/06/23 08:10:31;;;;;;;6.90;6.20;;;20.90;99.90;;;;;;4999048;28;20229;-71
2023/06/23 08:12:56;;;;;;;6.60;6.00;;;20.90;99.90;;;;;;4977896;28;20473;-71
2023/06/23 08:15:22;;;;;;;7.43;6.73;;;21.00;99.90;;;;;;4985361;28;20226;-71
2023/06/23 08:17:48;;;;;;;7.20;6.10;;;21.10;99.90;;;;;;5000750;28;20220;-72
2023/06/23 08:20:14;;;;;;;6.17;5.30;;;21.20;99.90;;;;;;4997118;28;20312;-71
2023/06/23 08:22:40;;;;;;;5.87;5.13;;;21.30;99.90;;;;;;5000614;28;20564;-71
2023/06/23 08:25:07;;;;;;;5.70;5.20;;;21.30;99.90;;;;;;4976035;28;20628;-71
2023/06/23 08:27:32;;;;;;;6.67;5.37;;;21.40;99.90;;;;;;4981924;28;20221;-72
2023/06/23 08:29:58;;;;;;;7.33;5.00;;;21.40;99.90;;;;;;4977083;28;20480;-72
2023/06/23 08:32:24;;;;;;;7.93;6.53;;;21.50;99.90;;;;;;4997578;28;20229;-72
2023/06/23 08:34:49;;;;;;;6.63;5.97;;;21.60;99.90;;;;;;4980978;28;20260;-71
2023/06/23 08:37:15;;;;;;;5.70;5.13;;;21.60;99.90;;;;;;5000586;28;20225;-71
2023/06/23 08:39:41;;;;;;;5.60;5.10;;;21.60;99.90;;;;;;5000114;28;20221;-71
2023/06/23 08:42:07;;;;;;;5.77;5.17;;;21.60;99.90;;;;;;4995533;28;20232;-73
2023/06/23 08:44:36;;;;;;;6.10;5.50;;;21.70;99.90;;;;;;5001842;28;20316;-72
2023/06/23 08:47:04;;;;;;;6.33;5.47;;;21.80;99.90;;;;;;4996926;28;20456;-72
2023/06/23 08:49:35;;;;;;;5.77;5.20;;;21.90;99.90;;;;;;5001888;28;20461;-71
2023/06/23 08:52:01;;;;;;;5.77;4.67;;;21.90;99.90;;;;;;4993379;28;20511;-72
2023/06/23 08:54:28;;;;;;;5.00;4.60;;;22.00;99.90;;;;;;4998412;28;20460;-72
2023/06/23 08:56:54;;;;;;;6.57;5.87;;;22.00;99.90;;;;;;4997630;28;20276;-72
2023/06/23 08:59:20;;;;;;;5.50;5.00;;;22.10;99.90;;;;;;4997177;28;20465;-71
2023/06/23 09:01:45;;;;;;;6.00;5.50;;;22.20;99.90;;;;;;4982819;28;20638;-71
2023/06/23 09:04:11;;;;;;;5.50;5.00;;;22.20;99.90;;;;;;4997330;28;20460;-72
2023/06/23 09:06:37;;;;;;;6.27;5.67;;;22.30;99.90;;;;;;5000109;28;20245;-72
2023/06/23 09:09:02;;;;;;;5.93;5.40;;;22.30;99.90;;;;;;4995574;28;20252;-71
2023/06/23 09:11:28;;;;;;;6.50;5.90;;;22.30;99.90;;;;;;4998802;28;20226;-71
2023/06/23 09:13:56;;;;;;;10.67;5.37;;;22.30;99.90;;;;;;4996472;28;20209;-72
2023/06/23 09:16:23;;;;;;;5.90;5.33;;;22.40;99.90;;;;;;4999589;28;20626;-73
2023/06/23 09:18:50;;;;;;;6.07;5.47;;;22.60;99.90;;;;;;4982618;28;20456;-72
2023/06/23 09:21:16;;;;;;;5.63;5.13;;;22.80;99.90;;;;;;4982142;28;20452;-72
2023/06/23 09:24:02;;;;;;;5.67;4.83;;;22.80;99.90;;;;;;4998570;28;20452;-72
2023/06/23 09:26:28;;;;;;;6.60;6.00;;;22.70;99.90;;;;;;4980658;28;20460;-72
2023/06/23 09:29:15;;;;;;;6.57;5.40;;;22.80;99.90;;;;;;4990231;28;20453;-72
2023/06/23 09:31:42;;;;;;;5.73;5.13;;;22.80;99.90;;;;;;4998288;28;20225;-72
2023/06/23 09:34:07;;;;;;;5.83;5.23;;;23.00;99.90;;;;;;4984900;28;20462;-72
2023/06/23 09:36:34;;;;;;;5.83;5.33;;;22.80;99.90;;;;;;5003425;28;20863;-72
2023/06/23 09:39:03;;;;;;;8.20;5.43;;;23.00;99.90;;;;;;4974695;28;20221;-72
2023/06/23 09:41:33;;;;;;;6.10;5.50;;;23.20;99.90;;;;;;4998047;28;20492;-73
2023/06/23 09:43:59;;;;;;;5.80;5.27;;;23.30;99.90;;;;;;4992650;28;20970;-72
2023/06/23 09:46:27;;;;;;;5.43;4.93;;;23.30;99.90;;;;;;4997467;28;20448;-72
2023/06/23 09:48:53;;;;;;;4.70;4.30;;;23.40;99.90;;;;;;4988660;28;20696;-72
2023/06/23 09:51:19;;;;;;;6.40;4.43;;;23.40;99.90;;;;;;5004971;28;20526;-72
2023/06/23 09:53:45;;;;;;;5.83;5.30;;;23.40;99.90;;;;;;4987225;28;20472;-72
2023/06/23 09:56:19;;;;;;;5.67;5.13;;;23.40;99.90;;;;;;4999080;28;20248;-72
2023/06/23 09:58:46;;;;;;;5.60;4.93;;;23.50;99.90;;;;;;4990198;28;20464;-73
2023/06/23 10:01:17;;;;;;;5.43;4.93;;;23.70;99.90;;;;;;4998572;28;20464;-72
2023/06/23 10:03:50;;;;;;;6.93;5.00;;;23.50;99.90;;;;;;4981724;28;20468;-72
2023/06/23 10:06:31;;;;;;;5.97;5.37;;;23.50;99.90;;;;;;5004639;28;20470;-72
2023/06/23 10:08:59;;;;;;;5.40;4.90;;;23.60;99.90;;;;;;4982239;28;20474;-72
2023/06/23 10:11:39;;;;;;;5.83;5.33;;;23.50;99.80;;;;;;5002718;28;20480;-72
2023/06/23 10:14:08;;;;;;;5.93;5.33;;;23.40;99.80;;;;;;4997710;28;20463;-72
2023/06/23 10:16:35;;;;;;;5.80;5.00;;;23.60;99.80;;;;;;4981838;28;20471;-72
2023/06/23 10:19:01;;;;;;;6.17;5.13;;;23.50;99.60;;;;;;4978616;28;20964;-72
2023/06/23 10:21:30;;;;;;;7.60;4.90;;;23.40;99.40;;;;;;5000726;28;20491;-72
2023/06/23 10:23:59;;;;;;;6.03;5.27;;;23.40;99.10;;;;;;5006209;28;20459;-72
2023/06/23 10:26:25;;;;;;;5.43;4.90;;;23.60;99.00;;;;;;5002280;28;20487;-72
2023/06/23 10:28:53;;;;;;;6.73;5.10;;;23.70;99.20;;;;;;4988405;28;20449;-72
2023/06/23 10:31:19;;;;;;;7.30;4.80;;;23.60;98.50;;;;;;5003268;28;20471;-72
2023/06/23 10:33:46;;;;;;;5.00;4.60;;;23.80;98.70;;;;;;5002420;28;20551;-72
2023/06/23 10:36:16;;;;;;;5.47;4.97;;;23.80;98.90;;;;;;4999309;28;20458;-72
2023/06/23 10:38:45;;;;;;;5.20;4.67;;;23.80;98.30;;;;;;4995257;28;20548;-72
2023/06/23 10:41:13;;;;;;;5.93;4.60;;;24.30;98.90;;;;;;4998248;28;20478;-72
2023/06/23 10:43:45;;;;;;;6.50;5.13;;;24.40;98.40;;;;;;5003293;28;20494;-72
2023/06/23 10:46:11;;;;;;;5.70;4.47;;;24.60;98.00;;;;;;5003004;28;20455;-73
2023/06/23 10:48:37;;;;;;;5.10;4.70;;;24.40;97.30;;;;;;4996590;28;20472;-72
2023/06/23 10:51:04;;;;;;;4.23;3.83;;;24.10;97.40;;;;;;4980826;28;20913;-72
2023/06/23 10:53:32;;;;;;;5.57;5.07;;;24.50;97.60;;;;;;5001914;28;20548;-72
2023/06/23 10:55:59;;;;;;;4.30;3.97;;;24.60;97.10;;;;;;4988235;28;20460;-72
2023/06/23 10:58:25;;;;;;;4.90;4.27;;;24.20;96.60;;;;;;4998518;28;20464;-72
2023/06/23 11:00:54;;;;;;;5.30;4.80;;;24.10;96.80;;;;;;4975604;28;20483;-73
2023/06/23 11:03:24;;;;;;;5.20;4.70;;;24.20;96.70;;;;;;5002440;28;20462;-72
2023/06/23 11:05:55;;;;;;;6.07;5.07;;;24.20;96.50;;;;;;4999798;28;20490;-72
2023/06/23 11:08:28;;;;;;;5.43;4.93;;;24.50;96.40;;;;;;5001931;28;20526;-72
2023/06/23 11:10:59;;;;;;;4.47;4.17;;;24.30;96.10;;;;;;4998618;28;20518;-72
2023/06/23 11:13:46;;;;;;;4.93;4.53;;;24.40;96.00;;;;;;5001410;28;20467;-74
2023/06/23 11:16:25;;;;;;;9.57;4.10;;;24.40;96.30;;;;;;4996799;28;20814;-73
2023/06/23 11:18:53;;;;;;;5.43;4.93;;;24.40;96.10;;;;;;4999483;28;20966;-72
2023/06/23 11:21:30;;;;;;;4.47;3.97;;;24.30;96.40;;;;;;5007932;28;20452;-73
2023/06/23 11:24:17;;;;;;;5.00;3.53;;;24.50;96.40;;;;;;5006434;28;20448;-72
2023/06/23 11:26:43;;;;;;;4.40;4.00;;;24.70;96.70;;;;;;4991313;28;20465;-72
2023/06/23 11:29:12;;;;;;;6.20;4.70;;;25.00;95.80;;;;;;5006528;28;20510;-72
2023/06/23 11:32:06;;;;;;;5.33;4.93;;;25.00;95.40;;;;;;5010752;28;20470;-73
2023/06/23 11:34:48;;;;;;;4.90;4.50;;;25.10;94.90;;;;;;5004222;28;20456;-73
2023/06/23 11:37:14;;;;;;;5.03;4.63;;;25.00;95.20;;;;;;5003950;28;20582;-72
2023/06/23 11:39:40;;;;;;;5.73;4.90;;;25.00;95.10;;;;;;5007587;28;20527;-73
2023/06/23 11:42:07;;;;;;;4.97;4.57;;;25.00;95.50;;;;;;5008114;28;20235;-73
2023/06/23 11:44:32;;;;;;;4.57;4.17;;;25.40;95.80;;;;;;5007474;28;20992;-72
2023/06/23 11:46:58;;;;;;;4.60;4.17;;;25.50;95.10;;;;;;5006043;28;20464;-73
2023/06/23 11:49:24;;;;;;;4.40;4.00;;;25.80;95.40;;;;;;5006287;28;20251;-73
2023/06/23 11:51:50;;;;;;;4.70;4.40;;;26.00;95.20;;;;;;5005680;28;20230;-72
2023/06/23 11:54:16;;;;;;;5.50;4.87;;;26.20;94.10;;;;;;4991866;28;20518;-73
2023/06/23 11:56:42;;;;;;;4.23;3.87;;;25.90;93.70;;;;;;5003831;28;20467;-73
2023/06/23 11:59:10;;;;;;;4.83;4.33;;;25.60;93.60;;;;;;4989291;28;20449;-74
2023/06/23 12:01:36;;;;;;;5.30;4.87;;;25.40;93.30;;;;;;5012886;28;20457;-73
2023/06/23 12:04:05;;;;;;;4.77;4.00;;;25.20;93.30;;;;;;5007495;28;20459;-72
2023/06/23 12:06:36;;;;;;;4.87;4.47;;;25.20;93.40;;;;;;5008812;28;20213;-73
2023/06/23 12:09:03;;;;;;;5.60;4.20;;;25.30;93.10;;;;;;4996337;28;20460;-73
2023/06/23 12:11:29;;;;;;;4.60;4.20;;;25.30;93.80;;;;;;4989423;28;21257;-73
2023/06/23 12:13:57;;;;;;;4.30;4.00;;;25.30;93.40;;;;;;4989351;28;20546;-72
2023/06/23 12:16:23;;;;;;;4.87;4.47;;;25.20;93.10;;;;;;5003132;28;20469;-74
2023/06/23 12:18:50;;;;;;;4.00;3.70;;;25.40;93.70;;;;;;5007724;28;20454;-72
2023/06/23 12:21:20;;;;;;;4.77;4.37;;;25.70;92.50;;;;;;5004588;28;20225;-72
2023/06/23 12:23:46;;;;;;;4.00;3.70;;;25.40;92.30;;;;;;4990182;28;20534;-73
2023/06/23 12:26:14;;;;;;;4.40;4.10;;;25.60;92.50;;;;;;5013311;28;20535;-73
2023/06/23 12:28:39;;;;;;;4.67;4.27;;;26.10;92.20;;;;;;4986985;28;20316;-75
2023/06/23 12:31:06;;;;;;;5.43;4.40;;;25.70;91.60;;;;;;5000802;28;20842;-72
2023/06/23 12:33:35;;;;;;;4.30;3.97;;;26.00;92.00;;;;;;4999915;28;20247;-73
2023/06/23 12:36:08;;;;;;;4.40;4.00;;;26.10;91.60;;;;;;4996521;28;20470;-73
2023/06/23 12:38:35;;;;;;;5.17;4.60;;;26.00;92.50;;;;;;4989330;28;20467;-73
2023/06/23 12:41:23;;;;;;;4.93;4.53;;;25.90;91.90;;;;;;5006846;28;20460;-73
2023/06/23 12:43:52;;;;;;;5.37;4.87;;;26.20;92.40;;;;;;5005682;28;20498;-73
2023/06/23 12:46:24;;;;;;;5.37;4.97;;;26.10;92.20;;;;;;5007807;28;21009;-73
2023/06/23 12:48:50;;;;;;;5.63;5.13;;;25.90;92.10;;;;;;5006877;28;20453;-72
2023/06/23 12:51:16;;;;;;;4.40;4.00;;;25.90;92.30;;;;;;4989675;28;20470;-73
2023/06/23 12:53:42;;;;;;;3.70;3.50;;;26.20;91.80;;;;;;4986782;28;20456;-73
2023/06/23 12:56:08;;;;;;;3.90;3.60;;;26.20;89.50;;;;;;4991182;28;20452;-73
2023/06/23 12:58:34;;;;;;;4.37;3.70;;;26.40;90.90;;;;;;4988400;28;20229;-73